Time;durP1;ratioP1;P1;durP2;ratioP2;P2;SDS_P1;SDS_P2;PMS_P1;PMS_P2;Temp;Humidity;BMP_temperature;BMP_pressure;BME280_temperature;BME280_humidity;BME280_pressure;Samples;Min_cycle;Max_cycle;Signal;HPM_P1;HPM_P2
2022/04/21 00:00:08;;;;;;;7.60;5.33;;;;;;;10.15;54.31;101285.75;5091739;28;20050;-80
2022/04/21 00:02:33;;;;;;;8.60;6.78;;;;;;;10.12;54.60;101291.25;5093989;28;20278;-80
2022/04/21 00:04:59;;;;;;;9.02;5.85;;;;;;;10.11;54.43;101288.75;5093424;28;20055;-80
2022/04/21 00:07:24;;;;;;;9.30;5.60;;;;;;;10.07;54.50;101284.56;5090217;28;20195;-80
2022/04/21 00:09:50;;;;;;;10.75;5.95;;;;;;;10.02;54.69;101284.88;5073925;28;20043;-80
2022/04/21 00:12:15;;;;;;;6.95;6.00;;;;;;;10.00;54.95;101287.63;5073177;28;20037;-80
2022/04/21 00:14:41;;;;;;;9.02;5.78;;;;;;;9.99;55.17;101285.09;5073420;28;20041;-80
2022/04/21 00:17:08;;;;;;;7.43;5.75;;;;;;;9.96;54.69;101286.16;5073295;28;20039;-80
2022/04/21 00:19:34;;;;;;;9.38;6.03;;;;;;;9.91;55.14;101277.66;5073457;28;20075;-81
2022/04/21 00:24:43;;;;;;;9.13;5.70;;;;;;;9.90;54.92;101283.91;5073191;28;20040;-80
2022/04/21 00:27:08;;;;;;;8.90;5.60;;;;;;;9.88;55.34;101279.66;5072652;28;20044;-80
2022/04/21 00:29:35;;;;;;;9.68;5.78;;;;;;;9.87;55.12;101281.44;5072917;28;20033;-80
2022/04/21 00:32:00;;;;;;;8.07;5.38;;;;;;;9.82;55.32;101280.91;5073130;28;20032;-80
2022/04/21 00:34:25;;;;;;;10.43;5.82;;;;;;;9.83;55.24;101274.66;5073099;28;20039;-80
2022/04/21 00:36:50;;;;;;;10.80;5.75;;;;;;;9.82;55.50;101279.13;5069566;28;20047;-81
2022/04/21 00:39:16;;;;;;;8.23;5.47;;;;;;;9.75;55.21;101280.47;5072888;28;20102;-80
2022/04/21 00:41:41;;;;;;;9.20;5.72;;;;;;;9.77;55.62;101283.84;5072997;28;20056;-80
2022/04/21 00:44:07;;;;;;;7.68;5.93;;;;;;;9.73;55.25;101277.06;5072924;28;20479;-80
2022/04/21 00:46:37;;;;;;;11.90;5.32;;;;;;;9.76;55.58;101276.03;5072632;28;20033;-80
2022/04/21 00:49:03;;;;;;;9.45;5.60;;;;;;;9.68;55.98;101273.88;5073173;28;20467;-81
2022/04/21 00:51:28;;;;;;;7.30;5.60;;;;;;;9.73;55.63;101273.56;5072550;28;20047;-81
2022/04/21 00:53:53;;;;;;;7.72;5.35;;;;;;;9.69;55.85;101266.75;5072938;28;20029;-80
2022/04/21 00:56:19;;;;;;;11.13;6.07;;;;;;;9.67;55.61;101266.03;5072536;28;20036;-80
2022/04/21 00:58:45;;;;;;;6.78;5.38;;;;;;;9.68;55.87;101270.38;5072719;28;20032;-80
2022/04/21 01:03:55;;;;;;;9.57;5.63;;;;;;;9.62;56.25;101269.81;5072838;28;20071;-81
2022/04/21 01:06:22;;;;;;;9.70;5.78;;;;;;;9.55;56.09;101259.72;5071500;28;20052;-80
2022/04/21 01:08:48;;;;;;;8.45;5.43;;;;;;;9.58;56.42;101262.19;5080275;28;20043;-80
2022/04/21 01:11:16;;;;;;;8.20;5.60;;;;;;;9.57;56.31;101269.25;5092726;28;20036;-80
2022/04/21 01:13:42;;;;;;;9.02;5.63;;;;;;;9.51;56.51;101267.03;5096760;28;20383;-79
2022/04/21 01:16:07;;;;;;;7.15;5.63;;;;;;;9.53;56.36;101274.88;5096660;28;20046;-80
2022/04/21 01:18:32;;;;;;;7.68;5.60;;;;;;;9.52;56.44;101275.84;5074849;28;20111;-80
2022/04/21 01:20:57;;;;;;;9.23;5.60;;;;;;;9.48;56.19;101269.03;5077601;28;20395;-80
2022/04/21 01:23:22;;;;;;;10.67;5.77;;;;;;;9.42;56.93;101265.81;5076533;28;20111;-80
2022/04/21 01:25:49;;;;;;;8.33;5.53;;;;;;;9.43;56.68;101270.16;5076278;28;20305;-81
2022/04/21 01:28:14;;;;;;;8.45;5.35;;;;;;;9.40;56.67;101270.38;5076422;28;20287;-80
2022/04/21 01:30:40;;;;;;;12.75;6.20;;;;;;;9.37;57.43;101267.06;5076226;28;20470;-80
2022/04/21 01:33:05;;;;;;;7.05;5.75;;;;;;;9.35;57.16;101267.16;5076188;28;20463;-80
2022/04/21 01:35:31;;;;;;;6.40;5.18;;;;;;;9.31;56.77;101265.69;5076107;28;20037;-80
2022/04/21 01:43:24;;;;;;;10.93;5.60;;;;;;;9.25;56.83;101258.94;5075968;28;20491;-80
2022/04/21 01:45:49;;;;;;;9.02;5.45;;;;;;;9.23;57.10;101266.16;5076228;28;20037;-80
2022/04/21 01:48:14;;;;;;;9.07;5.65;;;;;;;9.21;57.63;101264.56;5075612;28;20368;-80
2022/04/21 01:50:40;;;;;;;5.80;5.20;;;;;;;9.19;57.62;101269.09;5075730;28;20119;-80
2022/04/21 01:53:05;;;;;;;8.13;5.65;;;;;;;9.15;57.40;101267.59;5075623;28;20083;-80
2022/04/21 01:55:31;;;;;;;6.35;5.60;;;;;;;9.12;57.23;101259.84;5075627;28;20044;-79
2022/04/21 01:57:56;;;;;;;7.03;6.00;;;;;;;9.11;57.59;101260.78;5075641;28;20507;-80
2022/04/21 02:00:22;;;;;;;7.82;6.03;;;;;;;9.01;57.23;101239.31;5075611;28;20038;-80
2022/04/21 02:02:47;;;;;;;12.23;5.78;;;;;;;9.08;57.73;101253.91;5075222;28;20387;-80
2022/04/21 02:05:13;;;;;;;6.80;6.05;;;;;;;9.04;57.73;101252.38;5075873;28;20032;-80
2022/04/21 02:07:44;;;;;;;7.45;5.57;;;;;;;9.04;57.95;101263.84;5057270;28;20535;-80
2022/04/21 02:10:09;;;;;;;7.70;5.90;;;;;;;9.01;57.60;101261.38;5076000;28;20487;-80
2022/04/21 02:12:35;;;;;;;6.80;5.53;;;;;;;8.98;58.36;101260.75;5076151;28;20090;-80
2022/04/21 02:15:01;;;;;;;8.75;6.00;;;;;;;8.96;58.23;101259.97;5075892;28;20111;-80
2022/04/21 02:17:27;;;;;;;9.00;5.55;;;;;;;8.96;58.27;101270.56;5075571;28;20040;-80
2022/04/21 02:19:52;;;;;;;7.80;5.40;;;;;;;8.96;57.96;101263.47;5075522;28;20040;-81
2022/04/21 02:22:17;;;;;;;8.88;5.80;;;;;;;8.93;58.21;101265.47;5075161;28;20128;-80
2022/04/21 02:24:43;;;;;;;7.22;6.00;;;;;;;8.91;58.28;101262.91;5134285;22;20094;-61
2022/04/21 02:27:08;;;;;;;8.95;5.90;;;;;;;8.89;58.55;101260.38;5079774;28;20044;-61
2022/04/21 02:29:34;;;;;;;7.85;5.65;;;;;;;8.88;58.08;101261.31;5090919;28;20486;-61
2022/04/21 02:32:01;;;;;;;9.40;6.10;;;;;;;8.84;58.86;101265.09;5074545;28;20037;-61
2022/04/21 02:34:28;;;;;;;9.88;6.47;;;;;;;8.82;58.66;101260.84;5093819;28;20093;-61
2022/04/21 02:36:54;;;;;;;9.32;6.25;;;;;;;8.80;58.70;101255.63;5106892;28;20123;-61
2022/04/21 02:39:19;;;;;;;9.82;6.00;;;;;;;8.80;58.28;101260.09;5095094;28;20095;-61
2022/04/21 02:41:44;;;;;;;11.15;6.30;;;;;;;8.78;58.41;101262.81;5094903;28;20028;-61
2022/04/21 02:44:10;;;;;;;10.23;6.13;;;;;;;8.79;58.66;101261.91;5105766;28;20044;-61
2022/04/21 02:46:35;;;;;;;10.77;6.70;;;;;;;8.76;58.62;101261.22;5094883;28;20040;-62
2022/04/21 02:49:02;;;;;;;6.82;5.97;;;;;;;8.71;58.99;101258.88;5094855;28;20115;-61
2022/04/21 02:51:31;;;;;;;6.55;5.85;;;;;;;8.70;59.03;101262.44;5094708;28;20039;-61
2022/04/21 02:59:28;;;;;;;7.45;5.80;;;;;;;8.63;59.10;101266.44;5099930;28;20100;-61
2022/04/21 03:01:53;;;;;;;7.00;6.18;;;;;;;8.60;59.13;101264.81;5115286;28;20027;-61
2022/04/21 03:04:19;;;;;;;7.68;6.30;;;;;;;8.59;59.16;101259.63;5097980;28;20074;-61
2022/04/21 03:06:45;;;;;;;10.38;6.22;;;;;;;8.56;58.97;101258.03;5095085;28;20039;-61
2022/04/21 03:09:10;;;;;;;8.80;6.03;;;;;;;8.54;59.22;101254.59;5094310;28;20039;-60
2022/04/21 03:11:35;;;;;;;9.83;5.60;;;;;;;8.52;59.06;101253.84;5094666;28;20040;-61
2022/04/21 03:14:00;;;;;;;9.38;6.20;;;;;;;8.47;59.50;101253.28;5095047;28;20302;-62
2022/04/21 03:16:25;;;;;;;6.80;6.10;;;;;;;8.44;59.36;101248.16;5094504;28;20033;-62
2022/04/21 03:18:51;;;;;;;8.40;5.83;;;;;;;8.42;59.47;101252.69;5094375;28;20301;-62
2022/04/21 03:26:44;;;;;;;11.13;5.90;;;;;;;8.34;59.74;101255.78;5094225;28;20094;-62
2022/04/21 03:29:09;;;;;;;8.30;6.15;;;;;;;8.32;60.30;101257.66;5093614;28;20024;-62
2022/04/21 03:31:35;;;;;;;10.57;6.40;;;;;;;8.29;60.01;101256.06;5093201;28;20485;-62
2022/04/21 03:34:02;;;;;;;7.75;6.28;;;;;;;8.24;60.21;101255.47;5084219;28;20317;-62
2022/04/21 03:36:27;;;;;;;10.13;6.10;;;;;;;8.22;60.24;101254.72;5114253;28;20123;-62
2022/04/21 03:38:53;;;;;;;8.43;5.72;;;;;;;8.22;59.81;101253.88;5101220;28;20478;-61
2022/04/21 03:41:18;;;;;;;7.70;5.63;;;;;;;8.19;60.39;101259.34;5093594;28;20039;-61
2022/04/21 03:43:43;;;;;;;8.77;6.10;;;;;;;8.19;60.24;101262.00;5093471;28;20032;-61
2022/04/21 03:46:08;;;;;;;8.20;6.07;;;;;;;8.18;60.19;101258.50;5093434;28;20805;-61
2022/04/21 03:48:35;;;;;;;11.88;6.28;;;;;;;8.15;60.69;101259.53;5093336;28;20294;-61
2022/04/21 03:51:00;;;;;;;9.50;6.18;;;;;;;8.15;60.24;101259.53;5074979;28;20036;-61
2022/04/21 03:53:26;;;;;;;8.68;5.63;;;;;;;8.13;60.97;101265.88;5093034;28;20080;-61
2022/04/21 03:55:51;;;;;;;10.02;6.18;;;;;;;8.11;60.38;101259.81;5093512;28;20067;-61
2022/04/21 03:58:16;;;;;;;9.45;5.90;;;;;;;8.06;60.78;101262.75;5093311;28;20463;-61
2022/04/21 04:00:41;;;;;;;12.43;6.82;;;;;;;8.04;60.92;101271.69;5093320;28;20044;-61
2022/04/21 04:03:07;;;;;;;7.47;6.43;;;;;;;8.00;60.73;101264.91;5092995;28;20122;-61
2022/04/21 04:05:32;;;;;;;12.25;6.88;;;;;;;7.95;60.79;101270.47;5093180;28;20054;-61
2022/04/21 04:10:52;;;;;;;9.13;6.43;;;;;;;7.90;61.02;101265.44;5093343;28;20079;-61
2022/04/21 04:13:21;;;;;;;9.75;6.82;;;;;;;7.87;61.26;101268.25;5091835;28;20031;-61
2022/04/21 04:15:48;;;;;;;7.25;6.20;;;;;;;7.88;61.01;101274.41;5092990;28;20032;-61
2022/04/21 04:18:15;;;;;;;9.18;6.28;;;;;;;7.84;61.01;101255.19;5093053;28;20096;-61
2022/04/21 04:20:40;;;;;;;9.35;6.90;;;;;;;7.83;60.79;101269.38;5093162;28;20111;-61
2022/04/21 04:23:06;;;;;;;14.38;6.38;;;;;;;7.78;60.80;101259.06;5093036;28;20059;-61
2022/04/21 04:25:31;;;;;;;12.27;6.63;;;;;;;7.79;61.30;101267.84;5092481;28;20528;-61
2022/04/21 04:27:57;;;;;;;10.45;6.95;;;;;;;7.75;61.31;101264.53;5092066;28;20071;-61
2022/04/21 04:30:22;;;;;;;9.73;6.55;;;;;;;7.74;61.02;101262.84;5093176;28;20028;-61
2022/04/21 04:32:47;;;;;;;11.52;6.63;;;;;;;7.73;61.24;101266.41;5093126;28;20040;-60
2022/04/21 04:35:13;;;;;;;11.18;6.90;;;;;;;7.69;61.26;101262.22;5092674;28;20114;-61
2022/04/21 04:37:39;;;;;;;9.40;6.85;;;;;;;7.68;61.30;101272.91;5092584;28;20040;-61
2022/04/21 04:40:05;;;;;;;15.18;7.00;;;;;;;7.67;61.55;101266.75;5092514;28;20033;-61
2022/04/21 04:42:30;;;;;;;13.02;6.97;;;;;;;7.65;61.78;101281.03;5092668;28;20036;-61
2022/04/21 04:47:41;;;;;;;11.45;7.50;;;;;;;7.64;61.21;101280.16;5096981;28;20131;-61
2022/04/21 04:50:07;;;;;;;9.00;6.72;;;;;;;7.66;61.20;101277.41;5097325;28;20040;-61
2022/04/21 04:52:33;;;;;;;11.38;6.50;;;;;;;7.64;61.87;101282.78;5096930;28;20036;-61
2022/04/21 04:54:58;;;;;;;13.30;7.18;;;;;;;7.65;61.56;101284.50;5096723;28;20101;-61
2022/04/21 04:57:24;;;;;;;9.85;6.95;;;;;;;7.64;61.56;101281.94;5096330;28;20032;-60
2022/04/21 04:59:49;;;;;;;10.32;7.43;;;;;;;7.63;61.98;101280.25;5096555;28;20041;-61
2022/04/21 05:02:14;;;;;;;10.65;7.30;;;;;;;7.63;61.27;101280.25;5096886;28;20504;-61
2022/04/21 05:04:40;;;;;;;11.77;7.28;;;;;;;7.61;61.72;101277.72;5096145;28;20127;-61
2022/04/21 05:07:05;;;;;;;11.45;7.45;;;;;;;7.60;62.04;101279.47;5096300;28;20458;-61
2022/04/21 05:09:31;;;;;;;12.65;7.03;;;;;;;7.61;61.64;101277.72;5096127;28;20028;-61
2022/04/21 05:11:57;;;;;;;13.88;7.13;;;;;;;7.59;61.89;101279.56;5095964;28;20109;-61
2022/04/21 05:14:23;;;;;;;10.20;6.95;;;;;;;7.60;62.07;101279.47;5096508;28;20028;-61
2022/04/21 05:16:50;;;;;;;10.68;7.30;;;;;;;7.61;61.89;101275.06;5096267;28;20119;-62
2022/04/21 05:19:17;;;;;;;14.30;7.07;;;;;;;7.63;61.93;101277.59;5095840;28;20036;-61
2022/04/21 05:21:44;;;;;;;14.27;7.13;;;;;;;7.63;62.33;101277.59;5095985;28;20036;-61
2022/04/21 05:24:10;;;;;;;12.73;7.30;;;;;;;7.66;61.75;101272.13;5095825;28;20051;-61
2022/04/21 05:26:40;;;;;;;10.90;7.18;;;;;;;7.70;61.78;101273.69;5096017;28;20044;-61
2022/04/21 05:32:02;;;;;;;9.35;7.20;;;;;;;7.78;61.07;101274.09;5095665;28;20097;-61
2022/04/21 05:34:30;;;;;;;10.98;7.03;;;;;;;7.82;61.48;101277.41;5095938;28;20070;-61
2022/04/21 05:36:56;;;;;;;11.27;7.47;;;;;;;7.87;61.14;101273.53;5094721;28;20126;-61
2022/04/21 05:39:22;;;;;;;11.38;7.22;;;;;;;7.91;61.08;101275.09;5096053;28;20040;-61
2022/04/21 05:41:51;;;;;;;10.18;7.78;;;;;;;7.92;61.01;101266.19;5096857;28;20102;-61
2022/04/21 05:44:16;;;;;;;8.68;7.40;;;;;;;7.97;60.48;101271.22;5095713;28;20032;-61
2022/04/21 05:46:42;;;;;;;10.20;6.88;;;;;;;8.00;60.71;101272.84;5096142;28;20093;-61
2022/04/21 05:49:08;;;;;;;12.75;7.57;;;;;;;8.02;60.34;101266.50;5095077;28;20044;-61
2022/04/21 05:51:33;;;;;;;8.00;6.88;;;;;;;8.06;60.27;101267.16;5095080;28;20028;-61
2022/04/21 05:53:59;;;;;;;10.07;7.00;;;;;;;8.10;60.10;101276.63;5095612;28;20036;-62
2022/04/21 05:56:25;;;;;;;12.75;7.68;;;;;;;8.11;60.34;101265.09;5094078;28;20402;-62
2022/04/21 05:58:53;;;;;;;12.63;7.43;;;;;;;8.18;60.16;101269.09;5094737;28;20044;-62
2022/04/21 06:01:19;;;;;;;11.65;7.68;;;;;;;8.22;60.01;101270.59;5095439;28;20119;-62
2022/04/21 06:03:44;;;;;;;9.48;6.85;;;;;;;8.27;59.67;101272.97;5114896;28;20220;-62
2022/04/21 06:06:10;;;;;;;13.57;7.80;;;;;;;8.29;59.92;101269.31;5102583;28;20490;-62
2022/04/21 06:08:36;;;;;;;13.38;8.05;;;;;;;8.34;59.84;101272.53;5115537;28;20467;-62
2022/04/21 06:11:03;;;;;;;10.90;7.72;;;;;;;8.39;59.45;101269.59;5110861;28;20051;-62
2022/04/21 06:13:30;;;;;;;15.02;7.80;;;;;;;8.44;59.61;101270.22;5114803;28;20042;-62
2022/04/21 06:15:55;;;;;;;13.50;7.72;;;;;;;8.51;59.61;101268.03;5115984;28;20059;-61
2022/04/21 06:18:21;;;;;;;15.48;7.40;;;;;;;8.56;59.45;101267.75;5103456;28;20040;-61
2022/04/21 06:20:47;;;;;;;13.82;7.93;;;;;;;8.62;58.84;101276.16;5095277;28;20131;-61
2022/04/21 06:23:13;;;;;;;12.70;8.05;;;;;;;8.66;58.88;101259.16;5096178;28;20043;-60
2022/04/21 06:25:38;;;;;;;10.93;7.80;;;;;;;8.72;58.76;101265.84;5076192;28;20102;-61
2022/04/21 06:28:04;;;;;;;12.35;7.85;;;;;;;8.78;58.67;101254.88;5094790;28;20036;-61
2022/04/21 06:30:29;;;;;;;12.85;7.30;;;;;;;8.86;58.05;101265.00;5094452;28;20051;-61
2022/04/21 06:32:55;;;;;;;12.52;7.38;;;;;;;8.94;58.31;101261.84;5094523;28;20032;-60
2022/04/21 06:35:20;;;;;;;15.88;7.65;;;;;;;9.00;57.96;101256.19;5093937;28;20371;-62
2022/04/21 06:37:46;;;;;;;11.68;7.53;;;;;;;9.07;58.00;101260.13;5093671;28;20043;-61
2022/04/21 06:40:12;;;;;;;11.82;7.53;;;;;;;9.15;57.40;101257.84;5113918;28;20035;-61
2022/04/21 06:42:38;;;;;;;13.20;7.10;;;;;;;9.24;57.23;101251.09;5114613;28;20042;-61
2022/04/21 06:48:03;;;;;;;11.82;7.25;;;;;;;9.44;56.97;101252.44;5078538;28;20055;-61
2022/04/21 06:50:34;;;;;;;9.93;7.07;;;;;;;9.58;56.41;101251.56;5093966;28;20055;-61
2022/04/21 06:53:05;;;;;;;14.77;7.47;;;;;;;9.69;55.82;101251.72;5093835;28;20040;-61
2022/04/21 06:55:32;;;;;;;14.90;7.45;;;;;;;9.87;56.32;101249.63;5093847;28;20044;-61
2022/04/21 06:57:57;;;;;;;12.10;7.35;;;;;;;10.05;55.47;101247.53;5099482;28;20031;-61
2022/04/21 07:00:25;;;;;;;12.23;7.32;;;;;;;10.21;54.62;101242.03;5101142;28;20044;-61
2022/04/21 07:02:55;;;;;;;9.45;6.40;;;;;;;10.44;54.74;101245.78;5093151;28;20040;-61
2022/04/21 07:05:22;;;;;;;10.45;7.15;;;;;;;10.68;53.49;101242.34;5094235;28;20034;-61
2022/04/21 07:07:48;;;;;;;8.18;6.75;;;;;;;10.93;52.55;101244.97;5094130;28;20036;-61
2022/04/21 07:10:13;;;;;;;13.57;7.00;;;;;;;11.21;52.69;101242.13;5092828;28;20051;-61
2022/04/21 07:12:39;;;;;;;11.38;6.75;;;;;;;11.53;51.86;101245.06;5075802;28;20028;-61
2022/04/21 07:15:09;;;;;;;10.00;6.60;;;;;;;11.78;50.48;101240.56;5074778;28;20433;-61
2022/04/21 07:17:35;;;;;;;10.25;6.88;;;;;;;12.05;49.63;101236.81;5102838;28;20036;-61
2022/04/21 07:20:02;;;;;;;8.23;6.18;;;;;;;12.33;49.24;101238.19;5111835;28;20028;-61
2022/04/21 07:22:28;;;;;;;8.45;6.35;;;;;;;12.61;48.25;101241.34;5116569;28;20035;-61
2022/04/21 07:24:55;;;;;;;11.30;6.10;;;;;;;12.88;47.79;101240.97;5111115;28;20442;-61
2022/04/21 07:27:21;;;;;;;13.07;6.47;;;;;;;13.04;46.76;101240.56;5113173;28;20040;-61
2022/04/21 07:29:46;;;;;;;9.60;6.30;;;;;;;13.25;46.41;101233.50;5095419;28;20047;-61
2022/04/21 07:32:11;;;;;;;10.90;5.95;;;;;;;13.59;46.02;101236.09;5113996;28;20444;-61
2022/04/21 07:34:37;;;;;;;9.82;5.80;;;;;;;13.81;45.28;101240.50;5108594;28;20047;-61
2022/04/21 07:37:04;;;;;;;11.25;5.70;;;;;;;14.06;43.90;101243.75;5113275;28;20508;-61
2022/04/21 07:39:29;;;;;;;7.90;5.85;;;;;;;14.33;43.65;101245.88;5113831;28;20583;-61
2022/04/21 07:41:57;;;;;;;9.07;5.82;;;;;;;14.57;43.21;101247.41;5113054;28;20056;-61
2022/04/21 07:44:22;;;;;;;7.65;5.28;;;;;;;14.92;42.58;101238.13;5104504;28;20047;-61
2022/04/21 07:46:47;;;;;;;10.30;5.45;;;;;;;15.20;41.86;101246.38;5106681;28;20485;-61
2022/04/21 07:49:58;;;;;;;10.17;6.30;;;;;;;15.46;42.19;101241.34;5113818;28;20032;-61
2022/04/21 07:54:43;;;;;;;8.82;5.70;;;;;;;15.92;40.42;101242.50;5094589;28;20607;-61
2022/04/21 07:57:08;;;;;;;8.80;5.95;;;;;;;16.22;40.18;101238.78;5094551;28;20032;-61
2022/04/21 07:59:34;;;;;;;8.70;5.55;;;;;;;16.32;39.51;101232.53;5076670;28;20501;-59
2022/04/21 08:02:00;;;;;;;8.35;6.00;;;;;;;16.50;38.97;101236.13;5094942;28;20491;-60
2022/04/21 08:04:25;;;;;;;7.60;5.45;;;;;;;16.69;39.27;101237.91;5114026;28;20031;-60
2022/04/21 08:06:51;;;;;;;10.13;5.40;;;;;;;16.81;38.60;101233.19;5113792;28;20031;-60
2022/04/21 08:09:16;;;;;;;8.13;5.40;;;;;;;17.02;38.24;101228.47;5094561;28;20306;-60
2022/04/21 08:11:41;;;;;;;7.80;5.70;;;;;;;17.12;38.41;101230.22;5093258;28;20648;-60
2022/04/21 08:14:07;;;;;;;9.80;5.53;;;;;;;17.34;38.03;101228.97;5093632;28;20274;-60
2022/04/21 08:16:33;;;;;;;8.75;5.90;;;;;;;17.51;37.31;101225.44;5093439;28;20289;-60
2022/04/21 08:18:59;;;;;;;8.55;5.13;;;;;;;17.67;38.19;101227.44;5093424;28;20449;-60
2022/04/21 08:21:25;;;;;;;10.20;4.90;;;;;;;17.93;37.76;101230.16;5093225;28;20040;-60
2022/04/21 08:23:51;;;;;;;9.25;5.68;;;;;;;18.00;36.77;101234.91;5093353;28;20036;-60
2022/04/21 08:34:30;;;;;;;7.53;5.20;;;;;;;18.40;36.67;101229.00;5110733;28;20047;-60
2022/04/21 08:36:55;;;;;;;7.78;5.00;;;;;;;18.52;35.97;101229.56;5114773;28;20031;-61
2022/04/21 08:39:20;;;;;;;7.15;4.60;;;;;;;18.81;36.76;101233.72;5114951;28;20085;-60
2022/04/21 08:41:48;;;;;;;7.85;4.80;;;;;;;18.98;35.46;101235.47;5110326;28;20044;-60
2022/04/21 08:44:20;;;;;;;9.00;4.65;;;;;;;19.12;35.60;101231.31;5093635;28;20504;-60
2022/04/21 08:46:48;;;;;;;6.65;4.78;;;;;;;18.95;35.04;101240.34;5093918;28;20145;-60
2022/04/21 08:49:14;;;;;;;8.52;5.00;;;;;;;18.90;34.91;101227.41;5093593;28;20040;-60
2022/04/21 08:51:40;;;;;;;13.05;4.75;;;;;;;18.96;35.32;101232.09;5094040;28;20058;-60
2022/04/21 08:54:06;;;;;;;5.97;4.32;;;;;;;19.15;35.30;101228.31;5093744;28;20039;-60
2022/04/21 08:56:31;;;;;;;8.90;4.68;;;;;;;19.32;35.27;101223.78;5094226;28;20083;-61
2022/04/21 08:58:57;;;;;;;9.15;4.72;;;;;;;19.46;35.28;101224.16;5094252;28;20036;-61
2022/04/21 09:01:22;;;;;;;7.47;4.72;;;;;;;19.63;34.41;101219.59;5103148;28;20050;-60
2022/04/21 09:03:48;;;;;;;5.88;4.43;;;;;;;19.78;34.87;101220.66;5111792;28;20115;-61
2022/04/21 09:06:13;;;;;;;8.15;4.80;;;;;;;20.00;34.52;101210.19;5094149;28;20035;-59
2022/04/21 09:08:38;;;;;;;5.65;4.88;;;;;;;19.98;33.86;101217.59;5094546;28;20036;-58
2022/04/21 09:11:08;;;;;;;5.82;4.40;;;;;;;20.04;34.17;101217.75;5093915;28;20142;-59
2022/04/21 09:13:38;;;;;;;9.07;4.35;;;;;;;20.01;33.14;101212.72;5104207;28;20044;-59
2022/04/21 09:16:06;;;;;;;10.18;4.10;;;;;;;20.21;33.01;101213.19;5114053;28;20541;-58
2022/04/21 09:18:43;;;;;;;3.47;3.13;;;;;;;20.31;32.86;101205.72;5109189;28;20054;-58
2022/04/21 09:21:16;;;;;;;9.77;3.95;;;;;;;20.30;32.20;101200.50;5092035;28;20035;-58
2022/04/21 09:23:43;;;;;;;7.80;3.30;;;;;;;20.50;31.61;101196.41;5093062;28;20117;-59
2022/04/21 09:26:14;;;;;;;6.00;3.58;;;;;;;20.66;32.42;101194.69;5074559;28;20044;-59
2022/04/21 09:28:40;;;;;;;6.15;3.70;;;;;;;20.80;31.55;101193.09;5092949;28;20070;-58
2022/04/21 09:31:08;;;;;;;4.82;3.15;;;;;;;20.90;30.48;101191.03;5093258;28;20056;-58
2022/04/21 09:33:44;;;;;;;8.07;3.30;;;;;;;21.12;30.45;101188.56;5095393;28;20040;-59
2022/04/21 09:36:10;;;;;;;5.13;3.10;;;;;;;21.21;30.88;101185.59;5096418;28;20028;-59
2022/04/21 09:38:37;;;;;;;5.80;3.20;;;;;;;21.30;30.53;101185.53;5096622;28;20032;-58
2022/04/21 09:41:10;;;;;;;3.85;2.92;;;;;;;21.24;30.21;101187.94;5096463;28;20040;-59
2022/04/21 09:43:41;;;;;;;5.43;3.03;;;;;;;21.20;29.35;101188.47;5095289;28;20048;-59
2022/04/21 09:46:18;;;;;;;8.35;3.53;;;;;;;21.25;30.53;101189.63;5095757;28;20058;-60
2022/04/21 09:48:45;;;;;;;4.10;3.53;;;;;;;21.43;30.47;101178.53;5107801;28;20043;-59
2022/04/21 09:51:18;;;;;;;4.50;3.40;;;;;;;21.56;30.45;101188.75;5112550;28;20036;-60
2022/04/21 09:53:59;;;;;;;8.20;3.90;;;;;;;21.87;30.80;101189.69;5077299;28;20040;-59
2022/04/21 09:56:44;;;;;;;7.18;3.42;;;;;;;21.97;29.80;101176.72;5098873;28;20032;-60
2022/04/21 09:59:11;;;;;;;8.75;3.60;;;;;;;21.92;29.04;101177.28;5115782;28;20558;-60
2022/04/21 10:01:39;;;;;;;5.10;3.30;;;;;;;21.91;26.95;101167.47;5101021;28;20047;-61
2022/04/21 10:04:05;;;;;;;2.65;2.45;;;;;;;21.80;26.42;101181.47;5095461;28;20032;-61
2022/04/21 10:06:31;;;;;;;9.05;2.88;;;;;;;21.63;26.13;101180.75;5096917;28;20032;-62
2022/04/21 10:08:56;;;;;;;2.97;2.38;;;;;;;21.64;26.13;101174.31;5114881;28;20439;-62
2022/04/21 10:11:24;;;;;;;4.40;3.10;;;;;;;21.62;26.42;101171.81;5115460;28;20034;-61
2022/04/21 10:13:54;;;;;;;5.47;2.88;;;;;;;21.54;25.11;101169.16;5106351;28;20779;-61
2022/04/21 10:16:21;;;;;;;6.60;2.88;;;;;;;21.43;24.73;101169.56;5095043;28;20399;-61
2022/04/21 10:18:50;;;;;;;5.93;2.92;;;;;;;21.58;25.22;101159.69;5094689;28;20044;-61
2022/04/21 10:21:32;;;;;;;3.72;2.28;;;;;;;21.76;25.37;101163.91;5095111;28;20056;-60
2022/04/21 10:23:58;;;;;;;3.55;2.47;;;;;;;21.95;25.39;101155.28;5092865;28;20438;-60
2022/04/21 10:26:40;;;;;;;5.20;2.83;;;;;;;22.10;25.63;101159.84;5111166;28;20118;-61
2022/04/21 10:29:27;;;;;;;7.20;2.60;;;;;;;22.28;26.07;101152.25;5111135;28;20042;-60
2022/04/21 10:31:57;;;;;;;5.70;3.00;;;;;;;22.08;24.82;101156.47;5114280;28;20043;-60
2022/04/21 10:34:42;;;;;;;4.65;2.63;;;;;;;22.46;25.72;101145.59;5106110;28;20177;-60
2022/04/21 10:37:12;;;;;;;3.92;2.50;;;;;;;22.50;24.61;101144.19;5114472;28;20043;-61
2022/04/21 10:39:38;;;;;;;4.63;2.10;;;;;;;22.70;23.59;101139.84;5113310;28;20036;-60
2022/04/21 10:42:17;;;;;;;3.58;2.40;;;;;;;22.77;24.04;101136.41;5114588;28;20039;-60
2022/04/21 10:44:50;;;;;;;6.80;2.10;;;;;;;22.77;22.69;101144.53;5106215;28;20119;-60
2022/04/21 10:47:30;;;;;;;6.05;2.30;;;;;;;22.73;22.90;101139.47;5094168;28;20032;-61
2022/04/21 10:49:57;;;;;;;2.53;2.30;;;;;;;22.74;22.85;101132.19;5094268;28;20036;-62
2022/04/21 10:57:56;;;;;;;2.38;2.13;;;;;;;22.71;22.74;101122.56;5081954;28;20039;-61
2022/04/21 11:00:30;;;;;;;5.18;2.03;;;;;;;22.92;23.89;101123.63;5113011;28;20385;-61
2022/04/21 11:03:05;;;;;;;2.67;2.10;;;;;;;22.98;22.54;101124.72;5093463;28;20048;-61
2022/04/21 11:05:35;;;;;;;3.00;1.80;;;;;;;22.94;22.05;101124.28;5093792;28;20043;-61
2022/04/21 11:08:03;;;;;;;2.05;1.90;;;;;;;23.23;22.03;101111.66;5090441;28;20050;-61
2022/04/21 11:10:37;;;;;;;1.98;1.80;;;;;;;23.45;23.00;101116.03;5110431;28;20149;-61
2022/04/21 11:13:04;;;;;;;3.08;1.70;;;;;;;23.63;21.79;101118.25;5092176;28;20039;-60
2022/04/21 11:15:33;;;;;;;4.32;1.80;;;;;;;23.54;20.76;101119.44;5095522;28;20043;-61
2022/04/21 11:18:08;;;;;;;3.25;1.50;;;;;;;23.71;21.83;101113.72;5104583;28;20040;-60
2022/04/21 11:20:33;;;;;;;2.40;1.50;;;;;;;23.75;20.50;101107.69;5093865;28;20036;-60
2022/04/21 11:22:58;;;;;;;2.35;1.50;;;;;;;23.84;20.85;101097.56;5091854;28;20112;-60
2022/04/21 11:25:24;;;;;;;4.37;1.90;;;;;;;23.94;21.42;101089.91;5091020;28;20048;-61
2022/04/21 11:27:51;;;;;;;4.47;2.20;;;;;;;24.14;22.21;101098.13;5092554;28;20298;-60
2022/04/21 11:30:17;;;;;;;4.15;1.58;;;;;;;24.24;20.62;101080.66;5093032;28;20505;-60
2022/04/21 11:32:53;;;;;;;4.07;1.90;;;;;;;24.17;21.70;101081.47;5093301;28;20036;-60
2022/04/21 11:35:24;;;;;;;7.20;2.08;;;;;;;24.09;21.00;101078.91;5093591;28;20111;-60
2022/04/21 11:37:57;;;;;;;7.68;2.00;;;;;;;24.13;21.08;101074.78;5093512;28;20509;-60
2022/04/21 11:40:37;;;;;;;2.15;1.88;;;;;;;23.88;20.61;101076.28;5093908;28;20024;-60
2022/04/21 11:43:20;;;;;;;4.40;1.92;;;;;;;24.02;21.43;101078.88;5093449;28;20048;-60
2022/04/21 11:46:21;;;;;;;5.63;2.00;;;;;;;23.99;22.02;101070.31;5093403;28;20488;-60
2022/04/21 11:48:46;;;;;;;5.28;2.17;;;;;;;23.89;21.23;101064.41;5049898;28;20048;-60
2022/04/21 11:51:24;;;;;;;3.67;1.83;;;;;;;24.15;22.41;101069.97;5092906;28;20084;-59
2022/04/21 11:53:50;;;;;;;3.70;2.10;;;;;;;23.90;20.20;101069.66;5093618;28;20028;-59
2022/04/21 11:56:16;;;;;;;5.57;2.00;;;;;;;23.84;20.24;101065.00;5107180;28;20106;-60
2022/04/21 11:58:42;;;;;;;2.50;1.80;;;;;;;23.66;19.23;101079.03;5101189;28;20063;-60
2022/04/21 12:06:50;;;;;;;4.68;2.08;;;;;;;23.37;20.53;101066.56;5093414;28;20135;-60
2022/04/21 12:09:18;;;;;;;5.90;2.03;;;;;;;23.35;21.31;101063.19;5078300;28;20027;-62
2022/04/21 12:11:51;;;;;;;6.10;2.47;;;;;;;23.67;23.05;101063.63;5112847;28;20077;-61
2022/04/21 12:14:17;;;;;;;2.10;1.90;;;;;;;23.47;21.25;101061.63;5113204;28;20044;-61
2022/04/21 12:16:47;;;;;;;5.55;2.10;;;;;;;23.54;21.80;101054.38;5094355;28;20086;-61
2022/04/21 12:19:32;;;;;;;6.18;2.50;;;;;;;23.62;22.64;101048.78;5092628;28;20040;-61
2022/04/21 12:22:11;;;;;;;11.70;2.75;;;;;;;23.70;21.97;101046.94;5093012;28;20062;-62